logo
Rechercher aéroport 
image banner adimage banner adimage banner ad
image banner ad

FASX - Swellendam / Hendrik Swellengrebel

Situé à Swellendam, South Africa

ICAO - FASX, IATA -

Données fournies par Airmate  

Information générale

Coordonnées: S34°3'0" E20°29'0"
Élévation : 407 feet MSL.
 
Voir autres Aéroports à Western Cape

Données opérationnelles

Special qualification required
Heure actuelle UTC:
Heure actuelle locale:
Météo à : - ( 0 km )
METAR: PAKX 191335Z AUTO 00000KT 10SM BKN095 00/00 A3001 RMK AO2
Voir NOTAMs / SUP AIP / TFR affectant cet aéroport [VIEW]
Fréquences de communication: [VIEW]

Pistes:

Identifiant RWYQFULongueur (ft)Largeur (ft)SurfaceLDA (ft)
0640°1800150GRE
24220°1800150GRE
15126°329139LAT
33306°329139LAT

Coordonnées de l'aéroport

Adresse: Swellendam South Africa

Vue satellite de FASX